Impacts METAR Board
IDs:

KORD - Chicago/O'Hare Intl, IL, US

Updated at: 1300 UTC 27 Feb 2021
Potential Impact None Slight Moderate High
Time 27/01Z 27/02Z 27/03Z 27/04Z 27/05Z 27/06Z 27/07Z 27/08Z 27/09Z 27/10Z 27/11Z 27/12Z 27/13Z
Temp39 39 39 39 38 36 37 37 36 35 34 34 33
Dewpt25 26 27 28 30 31 32 32 32 31 30 30 30
Altim29.91 29.88 29.87 29.86 29.85 29.82 29.84 29.84 29.85 29.86 29.88 29.90 29.91
VIS10 10 10 10 9 9 9 8 6 6 5 4 1
CIG85 75 60 55 34 26 22 60 -- -- -- -- 1
CoverOVCOVCOVCOVCOVCOVCOVCOVCFEWCLRCLRCLROVX
FltCatVFRVFRVFRVFRVFRMVFRMVFRVFRVFRVFRMVFRMVFRLIFR
WX---------RA -SN-RA----BRBRBRBRBR
WDir150130120150200180220210230230220210210
WSpd6 9 7 9 4 4 5 6 6 5 5 5 6
WGst-- -- -- -- -- -- -- -- -- -- -- -- --
Raw hourly METARs
KORD 270051Z 15006KT 10SM BKN085 OVC110 04/M04 A2991 RMK AO2 SLP136 T00391039
KORD 270151Z 13009KT 10SM BKN075 OVC100 04/M03 A2988 RMK AO2 RAB42E51 SLP125 P0000 T00391033
KORD 270251Z 12007KT 10SM OVC060 04/M03 A2987 RMK AO2 SLP120 60000 T00391028 58017
KORD 270351Z 15009KT 10SM OVC055 04/M02 A2986 RMK AO2 RAB0253E10SNB0256E06 SLP117 P0000 T00391022
KORD 270451Z 20004KT 9SM -RASN BKN034 OVC050 03/M01 A2985 RMK AO2 RAB28SNB37 SLP112 P0000 T00331011
KORD 270551Z 18004KT 9SM -RA OVC026 02/M01 A2982 RMK AO2 SNE24 SLP105 4/005 P0002 60002 T00221006 10044 20022 400611044 58015
KORD 270651Z 22005KT 9SM OVC022 03/00 A2984 RMK AO2 RAE48 SLP108 P0000 T00280000
KORD 270751Z 21006KT 8SM SCT019 OVC060 03/00 A2984 RMK AO2 RAB36E46 SLP110 P0000 T00280000
KORD 270851Z 23006KT 6SM BR FEW080 02/00 A2985 RMK AO2 SLP112 60000 T00220000 51008
KORD 270951Z 23005KT 6SM BR CLR 02/M01 A2986 RMK AO2 SLP116 T00171006
KORD 271051Z 22005KT 5SM BR CLR 01/M01 A2988 RMK AO2 SLP122 T00111011
KORD 271151Z 21005KT 4SM BR CLR 01/M01 A2990 RMK AO2 SLP131 4/005 60000 70002 T00111011 10028 20011 53018
KORD 271301Z 21006KT 1SM R10L/1400V1800FT BR VV001 01/M01 A2991 RMK AO2 T00061011



Page loaded:  13:19 UTC  |   05:19 AM Pacific  |   06:19 AM Mountain  |   07:19 AM Central  |   08:19 AM Eastern

 

ADVISORIES

FORECASTS

FORECASTS

OBSERVATIONS

USER TOOLS

ABOUT US